sensor_id;sensor_type;location;lat;lon;timestamp;P1;durP1;ratioP1;P2;durP2;ratioP2
27357;SDS011;14831;50.474;7.616;2023-04-05T00:04:07;1.3;;;1.1;;
27357;SDS011;14831;50.474;7.616;2023-04-05T00:09:07;1.3;;;1.1;;
27357;SDS011;14831;50.474;7.616;2023-04-05T00:14:07;1.1;;;1.0;;
27357;SDS011;14831;50.474;7.616;2023-04-05T00:19:07;1.1;;;1.0;;
27357;SDS011;14831;50.474;7.616;2023-04-05T00:24:07;1.1;;;1.0;;
27357;SDS011;14831;50.474;7.616;2023-04-05T00:29:07;1.1;;;1.0;;
27357;SDS011;14831;50.474;7.616;2023-04-05T00:34:07;1.1;;;1.0;;
27357;SDS011;14831;50.474;7.616;2023-04-05T00:39:07;1.1;;;1.0;;
27357;SDS011;14831;50.474;7.616;2023-04-05T00:44:07;1.2;;;1.1;;
27357;SDS011;14831;50.474;7.616;2023-04-05T00:49:07;1.2;;;1.1;;
27357;SDS011;14831;50.474;7.616;2023-04-05T00:54:07;1.2;;;1.1;;
27357;SDS011;14831;50.474;7.616;2023-04-05T00:59:07;1.2;;;1.1;;
27357;SDS011;14831;50.474;7.616;2023-04-05T01:04:08;1.2;;;1.1;;
27357;SDS011;14831;50.474;7.616;2023-04-05T01:09:16;1.2;;;1.1;;
27357;SDS011;14831;50.474;7.616;2023-04-05T01:14:07;1.2;;;1.1;;
27357;SDS011;14831;50.474;7.616;2023-04-05T01:19:07;1.2;;;1.1;;
27357;SDS011;14831;50.474;7.616;2023-04-05T01:24:16;1.2;;;1.1;;
27357;SDS011;14831;50.474;7.616;2023-04-05T01:29:24;1.2;;;1.1;;
27357;SDS011;14831;50.474;7.616;2023-04-05T01:34:15;1.2;;;1.1;;
27357;SDS011;14831;50.474;7.616;2023-04-05T01:39:09;1.2;;;1.1;;
27357;SDS011;14831;50.474;7.616;2023-04-05T01:44:07;1.1;;;1.0;;
27357;SDS011;14831;50.474;7.616;2023-04-05T01:49:07;1.1;;;1.0;;
27357;SDS011;14831;50.474;7.616;2023-04-05T01:54:07;1.1;;;1.0;;
27357;SDS011;14831;50.474;7.616;2023-04-05T01:59:07;1.1;;;1.0;;
27357;SDS011;14831;50.474;7.616;2023-04-05T02:04:07;1.1;;;1.0;;
27357;SDS011;14831;50.474;7.616;2023-04-05T02:09:07;1.1;;;1.0;;
27357;SDS011;14831;50.474;7.616;2023-04-05T02:14:07;1.0;;;1.0;;
27357;SDS011;14831;50.474;7.616;2023-04-05T02:19:07;1.0;;;1.0;;
27357;SDS011;14831;50.474;7.616;2023-04-05T02:24:07;1.0;;;1.0;;
27357;SDS011;14831;50.474;7.616;2023-04-05T02:29:07;1.0;;;1.0;;
27357;SDS011;14831;50.474;7.616;2023-04-05T02:34:07;1.0;;;1.0;;
27357;SDS011;14831;50.474;7.616;2023-04-05T02:39:07;1.0;;;1.0;;
27357;SDS011;14831;50.474;7.616;2023-04-05T02:44:07;1.2;;;1.1;;
27357;SDS011;14831;50.474;7.616;2023-04-05T02:49:07;1.2;;;1.1;;
27357;SDS011;14831;50.474;7.616;2023-04-05T02:54:07;1.2;;;1.1;;
27357;SDS011;14831;50.474;7.616;2023-04-05T02:59:07;1.2;;;1.1;;
27357;SDS011;14831;50.474;7.616;2023-04-05T03:04:07;1.2;;;1.1;;
27357;SDS011;14831;50.474;7.616;2023-04-05T03:09:07;1.2;;;1.1;;
27357;SDS011;14831;50.474;7.616;2023-04-05T03:14:07;1.2;;;1.1;;
27357;SDS011;14831;50.474;7.616;2023-04-05T03:19:07;1.2;;;1.1;;
27357;SDS011;14831;50.474;7.616;2023-04-05T03:24:07;1.2;;;1.1;;
27357;SDS011;14831;50.474;7.616;2023-04-05T03:29:07;1.2;;;1.1;;
27357;SDS011;14831;50.474;7.616;2023-04-05T03:34:07;1.2;;;1.1;;
27357;SDS011;14831;50.474;7.616;2023-04-05T03:39:07;1.2;;;1.1;;
27357;SDS011;14831;50.474;7.616;2023-04-05T03:44:07;1.2;;;1.1;;
27357;SDS011;14831;50.474;7.616;2023-04-05T03:49:07;1.2;;;1.1;;
27357;SDS011;14831;50.474;7.616;2023-04-05T03:54:07;1.2;;;1.1;;
27357;SDS011;14831;50.474;7.616;2023-04-05T03:59:07;1.2;;;1.1;;
27357;SDS011;14831;50.474;7.616;2023-04-05T04:04:07;1.2;;;1.1;;
27357;SDS011;14831;50.474;7.616;2023-04-05T04:09:07;1.2;;;1.1;;
27357;SDS011;14831;50.474;7.616;2023-04-05T04:14:07;1.2;;;1.1;;
27357;SDS011;14831;50.474;7.616;2023-04-05T04:19:07;1.2;;;1.1;;
27357;SDS011;14831;50.474;7.616;2023-04-05T04:24:07;1.2;;;1.1;;
27357;SDS011;14831;50.474;7.616;2023-04-05T04:29:07;1.2;;;1.1;;
27357;SDS011;14831;50.474;7.616;2023-04-05T04:34:07;1.2;;;1.1;;
27357;SDS011;14831;50.474;7.616;2023-04-05T04:39:07;1.2;;;1.1;;
27357;SDS011;14831;50.474;7.616;2023-04-05T04:44:07;1.1;;;1.1;;
27357;SDS011;14831;50.474;7.616;2023-04-05T04:49:07;1.1;;;1.1;;
27357;SDS011;14831;50.474;7.616;2023-04-05T04:54:07;1.1;;;1.1;;
27357;SDS011;14831;50.474;7.616;2023-04-05T04:59:07;1.1;;;1.1;;
27357;SDS011;14831;50.474;7.616;2023-04-05T05:04:07;1.1;;;1.1;;
27357;SDS011;14831;50.474;7.616;2023-04-05T05:09:07;1.1;;;1.1;;
27357;SDS011;14831;50.474;7.616;2023-04-05T05:14:07;1.5;;;1.2;;
27357;SDS011;14831;50.474;7.616;2023-04-05T05:19:07;1.5;;;1.2;;
27357;SDS011;14831;50.474;7.616;2023-04-05T05:24:07;1.5;;;1.2;;
27357;SDS011;14831;50.474;7.616;2023-04-05T05:29:07;1.5;;;1.2;;
27357;SDS011;14831;50.474;7.616;2023-04-05T05:34:07;1.5;;;1.2;;
27357;SDS011;14831;50.474;7.616;2023-04-05T05:39:07;1.5;;;1.2;;
27357;SDS011;14831;50.474;7.616;2023-04-05T05:44:07;2.5;;;1.8;;
27357;SDS011;14831;50.474;7.616;2023-04-05T05:49:07;2.5;;;1.8;;
27357;SDS011;14831;50.474;7.616;2023-04-05T05:54:07;2.5;;;1.8;;
27357;SDS011;14831;50.474;7.616;2023-04-05T05:59:07;2.5;;;1.8;;
27357;SDS011;14831;50.474;7.616;2023-04-05T06:04:07;2.5;;;1.8;;
27357;SDS011;14831;50.474;7.616;2023-04-05T06:09:07;2.5;;;1.8;;
27357;SDS011;14831;50.474;7.616;2023-04-05T06:14:07;3.0;;;1.5;;
27357;SDS011;14831;50.474;7.616;2023-04-05T06:19:07;3.0;;;1.5;;
27357;SDS011;14831;50.474;7.616;2023-04-05T06:24:07;3.0;;;1.5;;
27357;SDS011;14831;50.474;7.616;2023-04-05T06:29:07;3.0;;;1.5;;
27357;SDS011;14831;50.474;7.616;2023-04-05T06:34:07;3.0;;;1.5;;
27357;SDS011;14831;50.474;7.616;2023-04-05T06:39:07;3.0;;;1.5;;
27357;SDS011;14831;50.474;7.616;2023-04-05T06:44:07;2.7;;;1.7;;
27357;SDS011;14831;50.474;7.616;2023-04-05T06:49:07;2.7;;;1.7;;
27357;SDS011;14831;50.474;7.616;2023-04-05T06:54:07;2.7;;;1.7;;
27357;SDS011;14831;50.474;7.616;2023-04-05T06:59:07;2.7;;;1.7;;
27357;SDS011;14831;50.474;7.616;2023-04-05T07:04:07;2.7;;;1.7;;
27357;SDS011;14831;50.474;7.616;2023-04-05T07:09:07;2.7;;;1.7;;
27357;SDS011;14831;50.474;7.616;2023-04-05T07:14:07;3.1;;;1.8;;
27357;SDS011;14831;50.474;7.616;2023-04-05T07:19:07;3.1;;;1.8;;
27357;SDS011;14831;50.474;7.616;2023-04-05T07:24:07;3.1;;;1.8;;
27357;SDS011;14831;50.474;7.616;2023-04-05T07:29:08;3.1;;;1.8;;
27357;SDS011;14831;50.474;7.616;2023-04-05T07:34:07;3.1;;;1.8;;
27357;SDS011;14831;50.474;7.616;2023-04-05T07:39:07;3.1;;;1.8;;
27357;SDS011;14831;50.474;7.616;2023-04-05T07:44:07;1.7;;;1.6;;
27357;SDS011;14831;50.474;7.616;2023-04-05T07:49:07;1.7;;;1.6;;
27357;SDS011;14831;50.474;7.616;2023-04-05T07:54:07;1.7;;;1.6;;
27357;SDS011;14831;50.474;7.616;2023-04-05T07:59:07;1.7;;;1.6;;
27357;SDS011;14831;50.474;7.616;2023-04-05T08:04:07;1.7;;;1.6;;
27357;SDS011;14831;50.474;7.616;2023-04-05T08:09:07;1.7;;;1.6;;
27357;SDS011;14831;50.474;7.616;2023-04-05T08:14:07;2.1;;;1.6;;
27357;SDS011;14831;50.474;7.616;2023-04-05T08:19:07;2.1;;;1.6;;
27357;SDS011;14831;50.474;7.616;2023-04-05T08:24:07;2.1;;;1.6;;
27357;SDS011;14831;50.474;7.616;2023-04-05T08:29:07;2.1;;;1.6;;
27357;SDS011;14831;50.474;7.616;2023-04-05T08:34:07;2.1;;;1.6;;
27357;SDS011;14831;50.474;7.616;2023-04-05T08:39:07;2.1;;;1.6;;
27357;SDS011;14831;50.474;7.616;2023-04-05T08:44:09;1.6;;;1.4;;
27357;SDS011;14831;50.474;7.616;2023-04-05T08:49:07;1.6;;;1.4;;
27357;SDS011;14831;50.474;7.616;2023-04-05T08:54:07;1.6;;;1.4;;
27357;SDS011;14831;50.474;7.616;2023-04-05T08:59:09;1.6;;;1.4;;
27357;SDS011;14831;50.474;7.616;2023-04-05T09:04:11;1.6;;;1.4;;
27357;SDS011;14831;50.474;7.616;2023-04-05T09:09:07;1.6;;;1.4;;
27357;SDS011;14831;50.474;7.616;2023-04-05T09:14:07;1.7;;;1.4;;
27357;SDS011;14831;50.474;7.616;2023-04-05T09:19:07;1.7;;;1.4;;
27357;SDS011;14831;50.474;7.616;2023-04-05T09:24:07;1.7;;;1.4;;
27357;SDS011;14831;50.474;7.616;2023-04-05T09:29:07;1.7;;;1.4;;
27357;SDS011;14831;50.474;7.616;2023-04-05T09:34:07;1.7;;;1.4;;
27357;SDS011;14831;50.474;7.616;2023-04-05T09:39:08;1.7;;;1.4;;
27357;SDS011;14831;50.474;7.616;2023-04-05T09:44:07;2.3;;;1.5;;
27357;SDS011;14831;50.474;7.616;2023-04-05T09:49:07;2.3;;;1.5;;
27357;SDS011;14831;50.474;7.616;2023-04-05T09:54:08;2.3;;;1.5;;
27357;SDS011;14831;50.474;7.616;2023-04-05T09:59:08;2.3;;;1.5;;
27357;SDS011;14831;50.474;7.616;2023-04-05T10:04:07;2.3;;;1.5;;
27357;SDS011;14831;50.474;7.616;2023-04-05T10:09:08;2.3;;;1.5;;
27357;SDS011;14831;50.474;7.616;2023-04-05T10:14:07;3.2;;;1.5;;
27357;SDS011;14831;50.474;7.616;2023-04-05T10:19:14;3.2;;;1.5;;
27357;SDS011;14831;50.474;7.616;2023-04-05T10:24:17;3.2;;;1.5;;
27357;SDS011;14831;50.474;7.616;2023-04-05T10:29:11;3.2;;;1.5;;
27357;SDS011;14831;50.474;7.616;2023-04-05T10:34:17;3.2;;;1.5;;
27357;SDS011;14831;50.474;7.616;2023-04-05T10:39:12;3.2;;;1.5;;
27357;SDS011;14831;50.474;7.616;2023-04-05T10:44:08;4.5;;;2.0;;
27357;SDS011;14831;50.474;7.616;2023-04-05T10:49:11;4.5;;;2.0;;
27357;SDS011;14831;50.474;7.616;2023-04-05T10:54:07;4.5;;;2.0;;
27357;SDS011;14831;50.474;7.616;2023-04-05T10:59:07;4.5;;;2.0;;
27357;SDS011;14831;50.474;7.616;2023-04-05T11:04:10;4.5;;;2.0;;
27357;SDS011;14831;50.474;7.616;2023-04-05T11:09:10;4.5;;;2.0;;
27357;SDS011;14831;50.474;7.616;2023-04-05T11:14:23;1.6;;;1.5;;
27357;SDS011;14831;50.474;7.616;2023-04-05T11:19:07;1.6;;;1.5;;
27357;SDS011;14831;50.474;7.616;2023-04-05T11:24:08;1.6;;;1.5;;
27357;SDS011;14831;50.474;7.616;2023-04-05T11:29:07;1.6;;;1.5;;
27357;SDS011;14831;50.474;7.616;2023-04-05T11:34:07;1.6;;;1.5;;
27357;SDS011;14831;50.474;7.616;2023-04-05T11:39:23;1.6;;;1.5;;
27357;SDS011;14831;50.474;7.616;2023-04-05T11:44:13;2.1;;;1.4;;
27357;SDS011;14831;50.474;7.616;2023-04-05T11:49:07;2.1;;;1.4;;
27357;SDS011;14831;50.474;7.616;2023-04-05T11:54:07;2.1;;;1.4;;
27357;SDS011;14831;50.474;7.616;2023-04-05T11:59:12;2.1;;;1.4;;
27357;SDS011;14831;50.474;7.616;2023-04-05T12:04:07;2.1;;;1.4;;
27357;SDS011;14831;50.474;7.616;2023-04-05T12:09:07;2.1;;;1.4;;
27357;SDS011;14831;50.474;7.616;2023-04-05T12:14:07;1.6;;;1.4;;
27357;SDS011;14831;50.474;7.616;2023-04-05T12:19:07;1.6;;;1.4;;
27357;SDS011;14831;50.474;7.616;2023-04-05T12:24:07;1.6;;;1.4;;
27357;SDS011;14831;50.474;7.616;2023-04-05T12:29:07;1.6;;;1.4;;
27357;SDS011;14831;50.474;7.616;2023-04-05T12:34:07;1.6;;;1.4;;
27357;SDS011;14831;50.474;7.616;2023-04-05T12:39:08;1.6;;;1.4;;
27357;SDS011;14831;50.474;7.616;2023-04-05T12:44:11;2.1;;;1.5;;
27357;SDS011;14831;50.474;7.616;2023-04-05T12:49:09;2.1;;;1.5;;
27357;SDS011;14831;50.474;7.616;2023-04-05T12:54:07;2.1;;;1.5;;
27357;SDS011;14831;50.474;7.616;2023-04-05T12:59:07;2.1;;;1.5;;
27357;SDS011;14831;50.474;7.616;2023-04-05T13:04:07;2.1;;;1.5;;
27357;SDS011;14831;50.474;7.616;2023-04-05T13:09:07;2.1;;;1.5;;
27357;SDS011;14831;50.474;7.616;2023-04-05T13:14:07;2.1;;;1.5;;
27357;SDS011;14831;50.474;7.616;2023-04-05T13:19:07;2.1;;;1.5;;
27357;SDS011;14831;50.474;7.616;2023-04-05T13:24:07;2.1;;;1.5;;
27357;SDS011;14831;50.474;7.616;2023-04-05T13:29:07;2.1;;;1.5;;
27357;SDS011;14831;50.474;7.616;2023-04-05T13:34:07;2.1;;;1.5;;
27357;SDS011;14831;50.474;7.616;2023-04-05T13:39:07;2.1;;;1.5;;
27357;SDS011;14831;50.474;7.616;2023-04-05T13:44:07;1.8;;;1.6;;
27357;SDS011;14831;50.474;7.616;2023-04-05T13:49:07;1.8;;;1.6;;
27357;SDS011;14831;50.474;7.616;2023-04-05T13:54:07;1.8;;;1.6;;
27357;SDS011;14831;50.474;7.616;2023-04-05T13:59:07;1.8;;;1.6;;
27357;SDS011;14831;50.474;7.616;2023-04-05T14:04:07;1.8;;;1.6;;
27357;SDS011;14831;50.474;7.616;2023-04-05T14:09:07;1.8;;;1.6;;
27357;SDS011;14831;50.474;7.616;2023-04-05T14:14:07;2.7;;;1.5;;
27357;SDS011;14831;50.474;7.616;2023-04-05T14:19:07;2.7;;;1.5;;
27357;SDS011;14831;50.474;7.616;2023-04-05T14:24:07;2.7;;;1.5;;
27357;SDS011;14831;50.474;7.616;2023-04-05T14:29:07;2.7;;;1.5;;
27357;SDS011;14831;50.474;7.616;2023-04-05T14:34:07;2.7;;;1.5;;
27357;SDS011;14831;50.474;7.616;2023-04-05T14:39:07;2.7;;;1.5;;
27357;SDS011;14831;50.474;7.616;2023-04-05T14:44:07;1.9;;;1.2;;
27357;SDS011;14831;50.474;7.616;2023-04-05T14:49:07;1.9;;;1.2;;
27357;SDS011;14831;50.474;7.616;2023-04-05T14:54:07;1.9;;;1.2;;
27357;SDS011;14831;50.474;7.616;2023-04-05T14:59:07;1.9;;;1.2;;
27357;SDS011;14831;50.474;7.616;2023-04-05T15:04:07;1.9;;;1.2;;
27357;SDS011;14831;50.474;7.616;2023-04-05T15:09:07;1.9;;;1.2;;
27357;SDS011;14831;50.474;7.616;2023-04-05T15:14:07;1.8;;;1.5;;
27357;SDS011;14831;50.474;7.616;2023-04-05T15:19:07;1.8;;;1.5;;
27357;SDS011;14831;50.474;7.616;2023-04-05T15:24:07;1.8;;;1.5;;
27357;SDS011;14831;50.474;7.616;2023-04-05T15:29:07;1.8;;;1.5;;
27357;SDS011;14831;50.474;7.616;2023-04-05T15:34:07;1.8;;;1.5;;
27357;SDS011;14831;50.474;7.616;2023-04-05T15:39:07;1.8;;;1.5;;
27357;SDS011;14831;50.474;7.616;2023-04-05T15:44:07;1.9;;;1.3;;
27357;SDS011;14831;50.474;7.616;2023-04-05T15:49:07;1.9;;;1.3;;
27357;SDS011;14831;50.474;7.616;2023-04-05T15:54:07;1.9;;;1.3;;
27357;SDS011;14831;50.474;7.616;2023-04-05T15:59:07;1.9;;;1.3;;
27357;SDS011;14831;50.474;7.616;2023-04-05T16:04:07;1.9;;;1.3;;
27357;SDS011;14831;50.474;7.616;2023-04-05T16:09:07;1.9;;;1.3;;
27357;SDS011;14831;50.474;7.616;2023-04-05T16:14:07;1.3;;;1.2;;
27357;SDS011;14831;50.474;7.616;2023-04-05T16:19:07;1.3;;;1.2;;
27357;SDS011;14831;50.474;7.616;2023-04-05T16:24:07;1.3;;;1.2;;
27357;SDS011;14831;50.474;7.616;2023-04-05T16:29:07;1.3;;;1.2;;
27357;SDS011;14831;50.474;7.616;2023-04-05T16:34:07;1.3;;;1.2;;
27357;SDS011;14831;50.474;7.616;2023-04-05T16:39:07;1.3;;;1.2;;
27357;SDS011;14831;50.474;7.616;2023-04-05T16:44:07;1.7;;;1.5;;
27357;SDS011;14831;50.474;7.616;2023-04-05T16:49:07;1.7;;;1.5;;
27357;SDS011;14831;50.474;7.616;2023-04-05T16:54:07;1.7;;;1.5;;
27357;SDS011;14831;50.474;7.616;2023-04-05T16:59:07;1.7;;;1.5;;
27357;SDS011;14831;50.474;7.616;2023-04-05T17:04:07;1.7;;;1.5;;
27357;SDS011;14831;50.474;7.616;2023-04-05T17:09:07;1.7;;;1.5;;
27357;SDS011;14831;50.474;7.616;2023-04-05T17:14:07;1.5;;;1.4;;
27357;SDS011;14831;50.474;7.616;2023-04-05T17:19:07;1.5;;;1.4;;
27357;SDS011;14831;50.474;7.616;2023-04-05T17:24:07;1.5;;;1.4;;
27357;SDS011;14831;50.474;7.616;2023-04-05T17:29:07;1.5;;;1.4;;
27357;SDS011;14831;50.474;7.616;2023-04-05T17:34:07;1.5;;;1.4;;
27357;SDS011;14831;50.474;7.616;2023-04-05T17:39:07;1.5;;;1.4;;
27357;SDS011;14831;50.474;7.616;2023-04-05T17:44:07;1.4;;;1.0;;
27357;SDS011;14831;50.474;7.616;2023-04-05T17:49:07;1.4;;;1.0;;
27357;SDS011;14831;50.474;7.616;2023-04-05T17:54:07;1.4;;;1.0;;
27357;SDS011;14831;50.474;7.616;2023-04-05T17:59:07;1.4;;;1.0;;
27357;SDS011;14831;50.474;7.616;2023-04-05T18:04:07;1.4;;;1.0;;
27357;SDS011;14831;50.474;7.616;2023-04-05T18:09:07;1.4;;;1.0;;
27357;SDS011;14831;50.474;7.616;2023-04-05T18:14:07;1.3;;;1.2;;
27357;SDS011;14831;50.474;7.616;2023-04-05T18:19:07;1.3;;;1.2;;
27357;SDS011;14831;50.474;7.616;2023-04-05T18:24:07;1.3;;;1.2;;
27357;SDS011;14831;50.474;7.616;2023-04-05T18:29:07;1.3;;;1.2;;
27357;SDS011;14831;50.474;7.616;2023-04-05T18:34:07;1.3;;;1.2;;
27357;SDS011;14831;50.474;7.616;2023-04-05T18:39:07;1.3;;;1.2;;
27357;SDS011;14831;50.474;7.616;2023-04-05T18:44:07;1.1;;;1.0;;
27357;SDS011;14831;50.474;7.616;2023-04-05T18:49:07;1.1;;;1.0;;
27357;SDS011;14831;50.474;7.616;2023-04-05T18:54:07;1.1;;;1.0;;
27357;SDS011;14831;50.474;7.616;2023-04-05T18:59:07;1.1;;;1.0;;
27357;SDS011;14831;50.474;7.616;2023-04-05T19:04:07;1.1;;;1.0;;
27357;SDS011;14831;50.474;7.616;2023-04-05T19:09:07;1.1;;;1.0;;
27357;SDS011;14831;50.474;7.616;2023-04-05T19:14:07;1.0;;;1.0;;
27357;SDS011;14831;50.474;7.616;2023-04-05T19:19:07;1.0;;;1.0;;
27357;SDS011;14831;50.474;7.616;2023-04-05T19:24:07;1.0;;;1.0;;
27357;SDS011;14831;50.474;7.616;2023-04-05T19:29:07;1.0;;;1.0;;
27357;SDS011;14831;50.474;7.616;2023-04-05T19:34:07;1.0;;;1.0;;
27357;SDS011;14831;50.474;7.616;2023-04-05T19:39:09;1.0;;;1.0;;
27357;SDS011;14831;50.474;7.616;2023-04-05T19:44:09;0.9;;;0.9;;
27357;SDS011;14831;50.474;7.616;2023-04-05T19:49:08;0.9;;;0.9;;
27357;SDS011;14831;50.474;7.616;2023-04-05T19:54:08;0.9;;;0.9;;
27357;SDS011;14831;50.474;7.616;2023-04-05T19:59:26;0.9;;;0.9;;
27357;SDS011;14831;50.474;7.616;2023-04-05T20:04:10;0.9;;;0.9;;
27357;SDS011;14831;50.474;7.616;2023-04-05T20:09:07;0.9;;;0.9;;
27357;SDS011;14831;50.474;7.616;2023-04-05T20:14:07;1.0;;;1.0;;
27357;SDS011;14831;50.474;7.616;2023-04-05T20:19:09;1.0;;;1.0;;
27357;SDS011;14831;50.474;7.616;2023-04-05T20:24:08;1.0;;;1.0;;
27357;SDS011;14831;50.474;7.616;2023-04-05T20:29:07;1.0;;;1.0;;
27357;SDS011;14831;50.474;7.616;2023-04-05T20:34:08;1.0;;;1.0;;
27357;SDS011;14831;50.474;7.616;2023-04-05T20:39:07;1.0;;;1.0;;
27357;SDS011;14831;50.474;7.616;2023-04-05T20:44:07;1.2;;;1.1;;
27357;SDS011;14831;50.474;7.616;2023-04-05T20:49:07;1.2;;;1.1;;
27357;SDS011;14831;50.474;7.616;2023-04-05T20:54:07;1.2;;;1.1;;
27357;SDS011;14831;50.474;7.616;2023-04-05T20:59:07;1.2;;;1.1;;
27357;SDS011;14831;50.474;7.616;2023-04-05T21:04:07;1.2;;;1.1;;
27357;SDS011;14831;50.474;7.616;2023-04-05T21:09:07;1.2;;;1.1;;
27357;SDS011;14831;50.474;7.616;2023-04-05T21:14:07;1.0;;;1.0;;
27357;SDS011;14831;50.474;7.616;2023-04-05T21:19:07;1.0;;;1.0;;
27357;SDS011;14831;50.474;7.616;2023-04-05T21:24:07;1.0;;;1.0;;
27357;SDS011;14831;50.474;7.616;2023-04-05T21:29:07;1.0;;;1.0;;
27357;SDS011;14831;50.474;7.616;2023-04-05T21:34:07;1.0;;;1.0;;
27357;SDS011;14831;50.474;7.616;2023-04-05T21:39:07;1.0;;;1.0;;
27357;SDS011;14831;50.474;7.616;2023-04-05T21:44:07;1.2;;;1.1;;
27357;SDS011;14831;50.474;7.616;2023-04-05T21:49:07;1.2;;;1.1;;
27357;SDS011;14831;50.474;7.616;2023-04-05T21:54:07;1.2;;;1.1;;
27357;SDS011;14831;50.474;7.616;2023-04-05T21:59:07;1.2;;;1.1;;
27357;SDS011;14831;50.474;7.616;2023-04-05T22:04:07;1.2;;;1.1;;
27357;SDS011;14831;50.474;7.616;2023-04-05T22:09:07;1.2;;;1.1;;
27357;SDS011;14831;50.474;7.616;2023-04-05T22:14:07;1.4;;;1.3;;
27357;SDS011;14831;50.474;7.616;2023-04-05T22:19:07;1.4;;;1.3;;
27357;SDS011;14831;50.474;7.616;2023-04-05T22:24:07;1.4;;;1.3;;
27357;SDS011;14831;50.474;7.616;2023-04-05T22:29:07;1.4;;;1.3;;
27357;SDS011;14831;50.474;7.616;2023-04-05T22:34:07;1.4;;;1.3;;
27357;SDS011;14831;50.474;7.616;2023-04-05T22:39:07;1.4;;;1.3;;
27357;SDS011;14831;50.474;7.616;2023-04-05T22:44:07;1.3;;;1.2;;
27357;SDS011;14831;50.474;7.616;2023-04-05T22:49:07;1.3;;;1.2;;
27357;SDS011;14831;50.474;7.616;2023-04-05T22:54:07;1.3;;;1.2;;
27357;SDS011;14831;50.474;7.616;2023-04-05T22:59:07;1.3;;;1.2;;
27357;SDS011;14831;50.474;7.616;2023-04-05T23:04:07;1.3;;;1.2;;
27357;SDS011;14831;50.474;7.616;2023-04-05T23:09:07;1.3;;;1.2;;
27357;SDS011;14831;50.474;7.616;2023-04-05T23:14:07;1.4;;;1.3;;
27357;SDS011;14831;50.474;7.616;2023-04-05T23:19:07;1.4;;;1.3;;
27357;SDS011;14831;50.474;7.616;2023-04-05T23:24:07;1.4;;;1.3;;
27357;SDS011;14831;50.474;7.616;2023-04-05T23:29:07;1.4;;;1.3;;
27357;SDS011;14831;50.474;7.616;2023-04-05T23:34:07;1.4;;;1.3;;
27357;SDS011;14831;50.474;7.616;2023-04-05T23:39:07;1.4;;;1.3;;
27357;SDS011;14831;50.474;7.616;2023-04-05T23:44:07;1.1;;;1.1;;
27357;SDS011;14831;50.474;7.616;2023-04-05T23:49:07;1.1;;;1.1;;
27357;SDS011;14831;50.474;7.616;2023-04-05T23:54:07;1.1;;;1.1;;
27357;SDS011;14831;50.474;7.616;2023-04-05T23:59:07;1.1;;;1.1;;
